Time;durP1;ratioP1;P1;durP2;ratioP2;P2;SDS_P1;SDS_P2;PMS_P1;PMS_P2;Temp;Humidity;BMP_temperature;BMP_pressure;BME280_temperature;BME280_humidity;BME280_pressure;Samples;Min_cycle;Max_cycle;Signal;HPM_P1;HPM_P2
2022/05/12 00:01:07;;;;;;;;;;;16.00;99.90;;;;;;10249405;28;84132;-47
2022/05/12 00:06:08;;;;;;;;;;;15.90;82.80;;;;;;10249419;28;84227;-48
2022/05/12 00:11:09;;;;;;;;;;;15.70;95.60;;;;;;10248756;28;84102;-53
2022/05/12 00:16:09;;;;;;;;;;;15.70;90.50;;;;;;10248691;28;84219;-50
2022/05/12 00:21:10;;;;;;;;;;;15.60;98.70;;;;;;10247591;28;84805;-51
2022/05/12 00:26:10;;;;;;;;;;;15.50;99.90;;;;;;10248263;28;84884;-48
2022/05/12 00:31:11;;;;;;;;;;;15.50;83.50;;;;;;10240278;28;84231;-48
2022/05/12 00:36:12;;;;;;;;;;;15.40;92.60;;;;;;10248170;28;84085;-49
2022/05/12 00:41:12;;;;;;;;;;;15.30;86.80;;;;;;10247698;28;84731;-47
2022/05/12 00:46:20;;;;;;;;;;;15.20;73.90;;;;;;10248110;28;84983;-51
2022/05/12 00:51:24;;;;;;;;;;;15.10;51.70;;;;;;10247813;28;84099;-48
2022/05/12 00:56:24;;;;;;;;;;;15.10;55.30;;;;;;10230246;28;84100;-47
2022/05/12 01:01:25;;;;;;;;;;;15.00;69.10;;;;;;10247590;28;84708;-48
2022/05/12 01:06:25;;;;;;;;;;;14.80;1.00;;;;;;10230107;28;85199;-47
2022/05/12 01:11:26;;;;;;;;;;;14.60;1.00;;;;;;10230394;28;86959;-49
2022/05/12 01:16:34;;;;;;;;;;;14.30;1.00;;;;;;10246426;28;85774;-48
2022/05/12 01:21:34;;;;;;;;;;;14.10;1.00;;;;;;10247242;28;84945;-50
2022/05/12 01:26:35;;;;;;;;;;;14.00;1.00;;;;;;10247355;28;84140;-51
2022/05/12 01:31:36;;;;;;;;;;;13.90;1.00;;;;;;10229899;28;86821;-49
2022/05/12 01:36:37;;;;;;;;;;;13.80;1.00;;;;;;10247190;28;84922;-48
2022/05/12 01:41:38;;;;;;;;;;;13.60;1.00;;;;;;10246764;28;84835;-53
2022/05/12 01:46:38;;;;;;;;;;;13.60;1.00;;;;;;10247873;28;84141;-51
2022/05/12 01:51:39;;;;;;;;;;;13.50;1.00;;;;;;10247180;28;84138;-49
2022/05/12 01:56:39;;;;;;;;;;;13.40;1.00;;;;;;10246708;28;84724;-52
2022/05/12 02:01:40;;;;;;;;;;;13.30;1.00;;;;;;10246181;28;84332;-53
2022/05/12 02:06:41;;;;;;;;;;;13.20;1.00;;;;;;10246514;28;85171;-49
2022/05/12 02:11:41;;;;;;;;;;;13.20;1.00;;;;;;10245620;28;84977;-48
2022/05/12 02:16:42;;;;;;;;;;;13.10;1.00;;;;;;10245106;28;84925;-50
2022/05/12 02:21:43;;;;;;;;;;;13.00;1.00;;;;;;10245352;28;84077;-48
2022/05/12 02:26:43;;;;;;;;;;;12.90;1.00;;;;;;10245163;28;84221;-48
2022/05/12 02:31:44;;;;;;;;;;;12.80;1.00;;;;;;10245156;28;85085;-54
2022/05/12 02:37:00;;;;;;;;;;;12.80;1.00;;;;;;10242982;28;85979;-51
2022/05/12 02:42:01;;;;;;;;;;;12.80;1.00;;;;;;10235260;28;86919;-50
2022/05/12 02:47:02;;;;;;;;;;;12.70;1.00;;;;;;10249216;28;84103;-49
2022/05/12 02:52:04;;;;;;;;;;;12.60;1.00;;;;;;10250763;28;84062;-48
2022/05/12 02:57:05;;;;;;;;;;;12.70;1.00;;;;;;10251295;28;85015;-50
2022/05/12 03:02:05;;;;;;;;;;;12.70;1.00;;;;;;10232958;28;87017;-51
2022/05/12 03:07:06;;;;;;;;;;;12.60;1.00;;;;;;10237898;28;85226;-50
2022/05/12 03:12:07;;;;;;;;;;;12.60;1.00;;;;;;10250498;28;84307;-51
2022/05/12 03:17:07;;;;;;;;;;;12.50;1.00;;;;;;10251525;28;84173;-50
2022/05/12 03:22:08;;;;;;;;;;;12.50;1.00;;;;;;10232952;28;84244;-52
2022/05/12 03:27:09;;;;;;;;;;;12.50;1.00;;;;;;10242247;28;85551;-49
2022/05/12 03:32:12;;;;;;;;;;;12.40;1.00;;;;;;10251137;28;84101;-51
2022/05/12 03:37:13;;;;;;;;;;;12.40;1.00;;;;;;10251532;28;84126;-48
2022/05/12 03:42:15;;;;;;;;;;;12.40;1.00;;;;;;10251141;28;84961;-50
2022/05/12 03:47:19;;;;;;;;;;;12.40;6.60;;;;;;10232695;28;84836;-51
2022/05/12 03:52:20;;;;;;;;;;;12.40;3.60;;;;;;10250037;28;84912;-49
2022/05/12 03:57:22;;;;;;;;;;;12.40;14.40;;;;;;10230803;28;87071;-52
2022/05/12 04:02:24;;;;;;;;;;;12.30;25.00;;;;;;10266621;28;84359;-48
2022/05/12 04:07:25;;;;;;;;;;;12.30;24.90;;;;;;10290578;28;84235;-47
2022/05/12 04:12:26;;;;;;;;;;;12.30;63.40;;;;;;10290215;28;85129;-52
2022/05/12 04:17:26;;;;;;;;;;;12.20;50.30;;;;;;10297715;22;84369;-58
2022/05/12 04:22:27;;;;;;;;;;;12.20;74.00;;;;;;10265456;28;83976;-58
2022/05/12 04:27:27;;;;;;;;;;;12.10;96.80;;;;;;10261891;28;84202;-58
2022/05/12 04:32:28;;;;;;;;;;;12.10;99.90;;;;;;10261381;28;84909;-59
2022/05/12 04:37:29;;;;;;;;;;;12.10;99.90;;;;;;10262783;28;84394;-58
2022/05/12 04:42:30;;;;;;;;;;;12.00;99.90;;;;;;10251127;28;86985;-58
2022/05/12 04:47:31;;;;;;;;;;;12.10;99.90;;;;;;10259242;28;85212;-60
2022/05/12 04:52:32;;;;;;;;;;;12.10;99.90;;;;;;10269551;28;84280;-59
2022/05/12 04:57:36;;;;;;;;;;;12.20;99.90;;;;;;10278993;28;84310;-60
2022/05/12 05:02:37;;;;;;;;;;;12.40;99.90;;;;;;10258530;28;84369;-60
2022/05/12 05:07:38;;;;;;;;;;;12.50;99.90;;;;;;10268211;28;85675;-59
2022/05/12 05:12:42;;;;;;;;;;;12.50;99.90;;;;;;10257820;28;83979;-60
2022/05/12 05:17:43;;;;;;;;;;;12.60;90.90;;;;;;10240395;28;87235;-63
2022/05/12 05:22:47;;;;;;;;;;;12.70;98.20;;;;;;10253195;28;84788;-59
2022/05/12 05:27:48;;;;;;;;;;;12.80;93.20;;;;;;10251174;28;84859;-59
2022/05/12 05:32:49;;;;;;;;;;;12.90;73.60;;;;;;10255135;28;84002;-55
2022/05/12 05:37:52;;;;;;;;;;;12.90;44.30;;;;;;10253578;28;84145;-61
2022/05/12 05:42:53;;;;;;;;;;;13.00;40.20;;;;;;10254037;28;84177;-59
2022/05/12 05:47:56;;;;;;;;;;;13.30;14.00;;;;;;10256185;28;84084;-59
2022/05/12 05:58:15;;;;;;;;;;;13.70;1.00;;;;;;10254523;28;85043;-58
2022/05/12 06:03:17;;;;;;;;;;;13.70;1.00;;;;;;10254585;28;83959;-59
2022/05/12 06:08:18;;;;;;;;;;;13.80;1.00;;;;;;10255592;28;83986;-60
2022/05/12 06:13:19;;;;;;;;;;;13.90;1.00;;;;;;10237360;28;85314;-58
2022/05/12 06:18:19;;;;;;;;;;;14.10;1.00;;;;;;10261719;28;84987;-58
2022/05/12 06:23:20;;;;;;;;;;;14.30;1.00;;;;;;10300931;28;84737;-59
2022/05/12 06:28:20;;;;;;;;;;;14.40;1.00;;;;;;10297347;28;84141;-60
2022/05/12 06:33:22;;;;;;;;;;;14.70;1.00;;;;;;10298949;28;84076;-59
2022/05/12 06:38:22;;;;;;;;;;;14.80;1.00;;;;;;10300727;28;85055;-60
2022/05/12 06:43:23;;;;;;;;;;;15.00;1.00;;;;;;10260986;28;85987;-59
2022/05/12 06:48:24;;;;;;;;;;;15.00;1.00;;;;;;10240682;28;84784;-60
2022/05/12 06:53:24;;;;;;;;;;;15.20;1.00;;;;;;10249932;28;84287;-58
2022/05/12 06:58:25;;;;;;;;;;;15.40;1.00;;;;;;10233877;28;86128;-57
2022/05/12 07:03:26;;;;;;;;;;;15.40;1.00;;;;;;10239002;28;84401;-53
2022/05/12 07:08:27;;;;;;;;;;;15.70;1.00;;;;;;10249124;28;85020;-56
2022/05/12 07:13:27;;;;;;;;;;;16.20;1.00;;;;;;10249840;28;84541;-53
2022/05/12 07:18:28;;;;;;;;;;;17.00;1.00;;;;;;10248983;28;84879;-56
2022/05/12 07:28:48;;;;;;;;;;;17.70;1.00;;;;;;10249244;28;84186;-58
2022/05/12 07:33:49;;;;;;;;;;;18.40;1.00;;;;;;10231559;28;84068;-53
2022/05/12 07:38:49;;;;;;;;;;;18.70;1.00;;;;;;10242059;28;84539;-55
2022/05/12 07:43:51;;;;;;;;;;;19.20;99.90;;;;;;10248640;28;84797;-56
2022/05/12 07:48:51;;;;;;;;;;;20.20;30.40;;;;;;10249165;28;84139;-53
2022/05/12 07:53:52;;;;;;;;;;;20.00;7.40;;;;;;10247510;28;84283;-56
2022/05/12 07:58:54;;;;;;;;;;;19.80;1.00;;;;;;10247073;28;84885;-58
2022/05/12 08:03:54;;;;;;;;;;;19.20;99.90;;;;;;10246773;28;84493;-58
2022/05/12 08:08:55;;;;;;;;;;;18.90;99.90;;;;;;10249588;28;85085;-57
2022/05/12 08:13:56;;;;;;;;;;;19.20;92.90;;;;;;10230486;28;86163;-57
2022/05/12 08:18:56;;;;;;;;;;;19.00;12.10;;;;;;10248905;28;84797;-56
2022/05/12 08:23:57;;;;;;;;;;;19.10;1.00;;;;;;10249153;28;85351;-58
2022/05/12 08:28:57;;;;;;;;;;;19.50;1.00;;;;;;10248278;28;84215;-57
2022/05/12 08:33:59;;;;;;;;;;;19.90;1.00;;;;;;10230752;28;85710;-57
2022/05/12 08:38:59;;;;;;;;;;;20.50;1.00;;;;;;10247832;28;84862;-60
2022/05/12 08:44:01;;;;;;;;;;;21.80;99.90;;;;;;10246933;28;84874;-56
2022/05/12 08:49:05;;;;;;;;;;;22.20;99.90;;;;;;10248040;28;84350;-58
2022/05/12 08:54:11;;;;;;;;;;;21.90;20.20;;;;;;10248900;28;84738;-58
2022/05/12 08:59:12;;;;;;;;;;;21.90;1.00;;;;;;10250102;28;84873;-58
2022/05/12 09:04:21;;;;;;;;;;;22.80;1.00;;;;;;10249004;28;86292;-57
2022/05/12 09:09:25;;;;;;;;;;;22.90;99.90;;;;;;10216472;28;85666;-59
2022/05/12 09:14:32;;;;;;;;;;;22.50;99.90;;;;;;10249723;28;84051;-57
2022/05/12 09:19:33;;;;;;;;;;;23.20;1.00;;;;;;10250665;28;84413;-58
2022/05/12 09:24:34;;;;;;;;;;;24.00;99.90;;;;;;10233318;28;84184;-60
2022/05/12 09:29:48;;;;;;;;;;;23.90;1.00;;;;;;10216744;28;85884;-60
2022/05/12 09:35:26;;;;;;;;;;;22.90;99.90;;;;;;10231764;28;85063;-57
2022/05/12 09:40:27;;;;;;;;;;;21.50;1.00;;;;;;10244488;28;84036;-56
2022/05/12 09:45:31;;;;;;;;;;;21.80;1.00;;;;;;10247738;28;84963;-59
2022/05/12 09:50:33;;;;;;;;;;;21.10;1.00;;;;;;10247558;28;84852;-57
2022/05/12 09:55:38;;;;;;;;;;;20.70;40.10;;;;;;10247386;28;84902;-59
2022/05/12 10:00:40;;;;;;;;;;;21.00;96.50;;;;;;10246751;28;84027;-56
2022/05/12 10:11:04;;;;;;;;;;;22.70;1.00;;;;;;10246323;28;84897;-59
2022/05/12 10:16:07;;;;;;;;;;;23.80;1.00;;;;;;10248001;28;84081;-64
2022/05/12 10:21:29;;;;;;;;;;;24.90;99.90;;;;;;10256541;28;85713;-64
2022/05/12 10:26:36;;;;;;;;;;;25.60;1.00;;;;;;10255990;28;84788;-64
2022/05/12 10:31:50;;;;;;;;;;;26.30;1.00;;;;;;10255634;28;84233;-61
2022/05/12 10:36:57;;;;;;;;;;;26.10;1.00;;;;;;10237653;28;84197;-59
2022/05/12 10:41:57;;;;;;;;;;;24.00;99.90;;;;;;10253791;28;85033;-61
2022/05/12 10:47:08;;;;;;;;;;;24.20;1.00;;;;;;10237083;28;84923;-62
2022/05/12 10:52:09;;;;;;;;;;;23.40;99.90;;;;;;10255791;28;84139;-61
2022/05/12 10:57:09;;;;;;;;;;;24.00;1.00;;;;;;10254865;28;83976;-61
2022/05/12 11:02:19;;;;;;;;;;;24.90;99.90;;;;;;10253891;28;84132;-63
2022/05/12 11:07:29;;;;;;;;;;;26.20;99.90;;;;;;10258502;28;84924;-63
2022/05/12 11:12:33;;;;;;;;;;;27.00;99.90;;;;;;10256184;28;85137;-60
2022/05/12 11:17:37;;;;;;;;;;;27.30;1.00;;;;;;10257479;28;84818;-62
2022/05/12 11:22:43;;;;;;;;;;;27.80;74.00;;;;;;10259164;28;84429;-63
2022/05/12 11:29:41;;;;;;;;;;;27.70;1.00;;;;;;10259264;28;85923;-60
2022/05/12 11:33:29;;;;;;;;;;;27.90;1.00;;;;;;10258795;28;84424;-63
2022/05/12 11:38:42;;;;;;;;;;;27.40;1.00;;;;;;10257330;28;85002;-60
2022/05/12 11:49:02;;;;;;;;;;;25.60;1.00;;;;;;10241879;28;85024;-60
2022/05/12 11:54:05;;;;;;;;;;;25.50;1.00;;;;;;10257711;28;84483;-59
2022/05/12 11:59:16;;;;;;;;;;;25.20;1.00;;;;;;10255778;28;84693;-60
2022/05/12 12:04:37;;;;;;;;;;;24.70;1.00;;;;;;10240426;28;85255;-61
2022/05/12 12:09:38;;;;;;;;;;;25.30;1.00;;;;;;10258384;28;85103;-61
2022/05/12 12:14:50;;;;;;;;;;;25.20;1.00;;;;;;10258836;28;84039;-60
2022/05/12 12:19:52;;;;;;;;;;;26.20;1.00;;;;;;10238889;28;84381;-62
2022/05/12 12:24:53;;;;;;;;;;;26.30;1.00;;;;;;10257871;28;84166;-61
2022/05/12 12:30:14;;;;;;;;;;;25.40;1.00;;;;;;10240597;28;86307;-63
2022/05/12 12:35:25;;;;;;;;;;;25.40;1.00;;;;;;10254130;28;84868;-61
2022/05/12 12:40:31;;;;;;;;;;;25.70;1.00;;;;;;10256004;28;84361;-60
2022/05/12 12:45:32;;;;;;;;;;;25.40;1.00;;;;;;10255601;28;84117;-61
2022/05/12 12:50:41;;;;;;;;;;;25.20;1.00;;;;;;10257313;28;85129;-60
2022/05/12 13:01:11;;;;;;;;;;;24.70;1.00;;;;;;10254570;28;84210;-59
2022/05/12 13:06:16;;;;;;;;;;;23.90;1.00;;;;;;10253747;28;84228;-60
2022/05/12 13:11:18;;;;;;;;;;;23.40;1.00;;;;;;10253896;28;86226;-59
2022/05/12 13:16:21;;;;;;;;;;;23.70;1.00;;;;;;10253865;28;84946;-59
2022/05/12 13:21:26;;;;;;;;;;;24.20;1.00;;;;;;10254747;28;84978;-60
2022/05/12 13:26:27;;;;;;;;;;;25.20;1.00;;;;;;10253951;28;84122;-62
2022/05/12 13:31:50;;;;;;;;;;;25.50;1.00;;;;;;10235792;28;83981;-62
2022/05/12 13:36:53;;;;;;;;;;;25.10;1.00;;;;;;10253266;28;84872;-63
2022/05/12 13:42:00;;;;;;;;;;;24.30;1.00;;;;;;10255717;28;84064;-63
2022/05/12 13:47:01;;;;;;;;;;;24.70;1.00;;;;;;10237832;28;85256;-62
2022/05/12 13:52:19;;;;;;;;;;;25.20;1.00;;;;;;10254526;28;84994;-61
2022/05/12 13:57:19;;;;;;;;;;;24.90;1.00;;;;;;10255164;28;84925;-61
2022/05/12 14:02:31;;;;;;;;;;;24.90;1.00;;;;;;10253894;28;85060;-60
2022/05/12 14:07:32;;;;;;;;;;;24.70;1.00;;;;;;10253002;28;85355;-62
2022/05/12 14:12:32;;;;;;;;;;;24.20;1.00;;;;;;10233559;28;85988;-62
2022/05/12 14:22:55;;;;;;;;;;;23.10;1.00;;;;;;10252700;28;84912;-63
2022/05/12 14:27:56;;;;;;;;;;;22.50;1.00;;;;;;10251678;28;84117;-60
2022/05/12 14:32:57;;;;;;;;;;;22.30;1.00;;;;;;10253092;28;84065;-60
2022/05/12 14:37:58;;;;;;;;;;;22.30;1.00;;;;;;10249600;28;84096;-62
2022/05/12 14:42:58;;;;;;;;;;;22.60;1.00;;;;;;10239916;28;86859;-61
2022/05/12 14:48:01;;;;;;;;;;;22.10;1.00;;;;;;10260745;28;84865;-60
2022/05/12 14:53:08;;;;;;;;;;;21.90;1.00;;;;;;10260087;28;84942;-60
2022/05/12 14:58:11;;;;;;;;;;;21.80;1.00;;;;;;10240367;28;85780;-62
2022/05/12 15:03:12;;;;;;;;;;;21.70;1.00;;;;;;10258553;28;84789;-60
2022/05/12 15:08:13;;;;;;;;;;;21.90;1.00;;;;;;10258871;28;84134;-61
2022/05/12 15:13:13;;;;;;;;;;;21.80;1.00;;;;;;10240620;28;87206;-60
2022/05/12 15:18:14;;;;;;;;;;;21.60;1.00;;;;;;10257108;28;84146;-63
2022/05/12 15:23:14;;;;;;;;;;;21.80;1.00;;;;;;10240918;28;86044;-61
2022/05/12 15:28:20;;;;;;;;;;;21.80;1.00;;;;;;10256720;28;84778;-60
2022/05/12 15:33:21;;;;;;;;;;;21.80;1.00;;;;;;10257320;28;84066;-61
2022/05/12 15:38:23;;;;;;;;;;;21.60;1.00;;;;;;10259148;28;84187;-62
2022/05/12 15:43:24;;;;;;;;;;;21.50;1.00;;;;;;10268250;28;84917;-61
2022/05/12 15:48:24;;;;;;;;;;;21.50;1.00;;;;;;10232126;28;84288;-59
2022/05/12 15:53:25;;;;;;;;;;;21.60;1.00;;;;;;10267260;28;84322;-63
2022/05/12 15:58:26;;;;;;;;;;;21.30;1.00;;;;;;10278174;28;83830;-64
2022/05/12 16:03:26;;;;;;;;;;;21.00;1.00;;;;;;10261007;28;84139;-64
2022/05/12 16:08:27;;;;;;;;;;;21.10;1.00;;;;;;10237351;28;85942;-63
2022/05/12 16:13:31;;;;;;;;;;;21.20;1.00;;;;;;10271987;28;86824;-68
2022/05/12 16:18:32;;;;;;;;;;;21.10;1.00;;;;;;10278831;28;84041;-62
2022/05/12 16:23:32;;;;;;;;;;;21.20;1.00;;;;;;10275068;28;84238;-62
2022/05/12 16:28:36;;;;;;;;;;;21.30;1.00;;;;;;10246916;28;84430;-55
2022/05/12 16:33:37;;;;;;;;;;;21.10;1.00;;;;;;10241760;28;84794;-57
2022/05/12 16:38:38;;;;;;;;;;;20.80;1.00;;;;;;10249732;28;84250;-59
2022/05/12 16:43:39;;;;;;;;;;;20.80;1.00;;;;;;10243150;28;84229;-63
2022/05/12 16:48:39;;;;;;;;;;;20.70;1.00;;;;;;10223006;28;84353;-57
2022/05/12 16:53:40;;;;;;;;;;;20.70;1.00;;;;;;10243257;28;84961;-58
2022/05/12 16:58:40;;;;;;;;;;;20.60;1.00;;;;;;10244906;28;85026;-59
2022/05/12 17:03:41;;;;;;;;;;;20.60;1.00;;;;;;10243461;28;84806;-58
2022/05/12 17:08:41;;;;;;;;;;;20.50;1.00;;;;;;10243758;28;85675;-61
2022/05/12 17:13:42;;;;;;;;;;;20.60;1.00;;;;;;10241081;28;84291;-51
2022/05/12 17:18:45;;;;;;;;;;;20.60;1.00;;;;;;10239881;28;84297;-54
2022/05/12 17:23:46;;;;;;;;;;;20.70;1.00;;;;;;10212239;28;87101;-57
2022/05/12 17:28:47;;;;;;;;;;;20.60;1.00;;;;;;10241927;28;84092;-53
2022/05/12 17:33:48;;;;;;;;;;;20.50;1.00;;;;;;10233851;28;86161;-52
2022/05/12 17:38:48;;;;;;;;;;;20.30;1.00;;;;;;10246234;28;84981;-54
2022/05/12 17:43:49;;;;;;;;;;;20.30;1.00;;;;;;10245663;28;85095;-58
2022/05/12 17:48:50;;;;;;;;;;;20.40;1.00;;;;;;10248022;28;84971;-57
2022/05/12 17:53:50;;;;;;;;;;;20.20;1.00;;;;;;10249027;28;84179;-55
2022/05/12 17:58:51;;;;;;;;;;;20.00;1.00;;;;;;10242302;28;84236;-52
2022/05/12 18:03:51;;;;;;;;;;;19.90;1.00;;;;;;10237514;28;84574;-55
2022/05/12 18:08:52;;;;;;;;;;;19.70;1.00;;;;;;10202273;28;84635;-57
2022/05/12 18:13:53;;;;;;;;;;;19.60;14.70;;;;;;10239892;28;84823;-58
2022/05/12 18:18:54;;;;;;;;;;;19.50;62.00;;;;;;10237732;28;85004;-59
2022/05/12 18:23:54;;;;;;;;;;;19.50;99.90;;;;;;10244404;28;84348;-59
2022/05/12 18:28:55;;;;;;;;;;;19.40;99.90;;;;;;10245333;28;84208;-58
2022/05/12 18:33:55;;;;;;;;;;;19.30;99.90;;;;;;10246189;28;85438;-60
2022/05/12 18:38:56;;;;;;;;;;;19.20;99.90;;;;;;10245242;28;84203;-60
2022/05/12 18:43:56;;;;;;;;;;;19.20;99.90;;;;;;10191898;28;85027;-57
2022/05/12 18:48:57;;;;;;;;;;;19.10;99.90;;;;;;10206361;28;84019;-60
2022/05/12 18:53:58;;;;;;;;;;;19.00;1.00;;;;;;10226111;28;84169;-57
2022/05/12 18:58:58;;;;;;;;;;;18.90;1.00;;;;;;10242849;28;84198;-55
2022/05/12 19:04:02;;;;;;;;;;;18.80;1.00;;;;;;10236514;28;85218;-54
2022/05/12 19:09:03;;;;;;;;;;;18.70;1.00;;;;;;10242595;28;85037;-53
2022/05/12 19:14:04;;;;;;;;;;;18.70;1.00;;;;;;10225896;28;84750;-59
2022/05/12 19:19:04;;;;;;;;;;;18.60;1.00;;;;;;10226115;28;85106;-55
2022/05/12 19:24:05;;;;;;;;;;;18.40;8.00;;;;;;10232102;28;84999;-53
2022/05/12 19:29:06;;;;;;;;;;;18.30;99.90;;;;;;10247042;28;84940;-56
2022/05/12 19:34:07;;;;;;;;;;;18.20;1.00;;;;;;10239712;28;84324;-57
2022/05/12 19:39:08;;;;;;;;;;;18.00;99.90;;;;;;10219060;28;86005;-54
2022/05/12 19:44:09;;;;;;;;;;;17.90;1.00;;;;;;10249195;28;84713;-55
2022/05/12 19:49:09;;;;;;;;;;;17.80;1.00;;;;;;10249897;28;84945;-58
2022/05/12 19:54:10;;;;;;;;;;;17.80;1.00;;;;;;10249249;28;84173;-58
2022/05/12 19:59:10;;;;;;;;;;;17.70;1.00;;;;;;10232136;28;85902;-56
2022/05/12 20:04:11;;;;;;;;;;;17.60;99.90;;;;;;10230373;28;85004;-56
2022/05/12 20:09:11;;;;;;;;;;;17.50;99.90;;;;;;10236257;28;84286;-54
2022/05/12 20:14:13;;;;;;;;;;;17.50;1.00;;;;;;10239312;28;85064;-52
2022/05/12 20:19:14;;;;;;;;;;;17.60;1.00;;;;;;10208071;28;84561;-55
2022/05/12 20:24:15;;;;;;;;;;;17.60;1.00;;;;;;10238534;28;84999;-56
2022/05/12 20:29:16;;;;;;;;;;;17.60;99.90;;;;;;10249617;28;84113;-56
2022/05/12 20:34:17;;;;;;;;;;;17.50;1.00;;;;;;10247984;28;84914;-53
2022/05/12 20:39:18;;;;;;;;;;;17.50;1.00;;;;;;10230215;28;85606;-53
2022/05/12 20:44:18;;;;;;;;;;;17.40;1.00;;;;;;10218304;28;85992;-57
2022/05/12 20:49:19;;;;;;;;;;;17.40;1.00;;;;;;10206994;28;84034;-55
2022/05/12 20:54:19;;;;;;;;;;;17.30;1.00;;;;;;10210103;28;84940;-57
2022/05/12 20:59:20;;;;;;;;;;;17.20;1.00;;;;;;10207136;28;84866;-55
2022/05/12 21:04:20;;;;;;;;;;;17.20;1.00;;;;;;10217281;28;84967;-57
2022/05/12 21:09:21;;;;;;;;;;;17.10;99.90;;;;;;10240030;28;84200;-52
2022/05/12 21:14:21;;;;;;;;;;;17.10;99.90;;;;;;10238002;28;85818;-55
2022/05/12 21:19:22;;;;;;;;;;;16.90;99.90;;;;;;10246483;28;84990;-57
2022/05/12 21:24:23;;;;;;;;;;;16.90;1.00;;;;;;10236019;28;84873;-52
2022/05/12 21:29:23;;;;;;;;;;;16.90;1.00;;;;;;10246841;28;84970;-52
2022/05/12 21:34:25;;;;;;;;;;;16.90;1.00;;;;;;10218645;28;86947;-56
2022/05/12 21:39:26;;;;;;;;;;;16.80;99.90;;;;;;10246333;28;85932;-57
2022/05/12 21:44:26;;;;;;;;;;;16.70;1.00;;;;;;10246410;28;84247;-54
2022/05/12 21:49:27;;;;;;;;;;;16.50;1.00;;;;;;10242495;28;84151;-56
2022/05/12 21:54:28;;;;;;;;;;;16.40;1.00;;;;;;10246040;28;84178;-56
2022/05/12 22:04:49;;;;;;;;;;;16.20;1.00;;;;;;10200056;28;84272;-52
2022/05/12 22:09:50;;;;;;;;;;;16.10;99.90;;;;;;10244284;28;84818;-54
2022/05/12 22:14:51;;;;;;;;;;;16.10;99.90;;;;;;10241180;28;84108;-57
2022/05/12 22:19:52;;;;;;;;;;;15.90;1.00;;;;;;10248430;28;84306;-59
2022/05/12 22:24:52;;;;;;;;;;;15.90;1.00;;;;;;10248373;28;84189;-58
2022/05/12 22:29:53;;;;;;;;;;;15.90;1.00;;;;;;10246454;28;88399;-57
2022/05/12 22:34:53;;;;;;;;;;;15.80;1.00;;;;;;10231981;28;87471;-59
2022/05/12 22:39:54;;;;;;;;;;;15.70;99.90;;;;;;10232934;28;85197;-56
2022/05/12 22:44:55;;;;;;;;;;;15.70;99.90;;;;;;10249256;28;84183;-56
2022/05/12 22:49:55;;;;;;;;;;;15.60;99.90;;;;;;10233016;28;84306;-57
2022/05/12 22:54:56;;;;;;;;;;;15.50;99.90;;;;;;10249502;28;84864;-58
2022/05/12 22:59:56;;;;;;;;;;;15.50;99.90;;;;;;10250599;28;85211;-53
2022/05/12 23:04:57;;;;;;;;;;;15.40;1.00;;;;;;10254586;28;84956;-59
2022/05/12 23:09:58;;;;;;;;;;;15.40;1.00;;;;;;10255157;28;84989;-59
2022/05/12 23:14:58;;;;;;;;;;;15.40;1.00;;;;;;10257848;28;84164;-60
2022/05/12 23:25:18;;;;;;;;;;;15.30;1.00;;;;;;10256838;28;84051;-55
2022/05/12 23:30:18;;;;;;;;;;;15.20;1.00;;;;;;10249722;28;84266;-50
2022/05/12 23:35:19;;;;;;;;;;;15.20;1.00;;;;;;10231832;28;86197;-53
2022/05/12 23:40:22;;;;;;;;;;;15.20;22.40;;;;;;10249974;28;84124;-55
2022/05/12 23:45:22;;;;;;;;;;;15.20;32.20;;;;;;10250078;28;84874;-54
2022/05/12 23:50:23;;;;;;;;;;;15.10;92.10;;;;;;10248698;28;84253;-53
2022/05/12 23:55:24;;;;;;;;;;;15.10;99.90;;;;;;10249443;28;84267;-48
